createdAt,value
2023-05-05T00:00:51.981Z,10.63
2023-05-05T00:03:20.912Z,10.57
2023-05-05T00:05:51.146Z,10.52
2023-05-05T00:08:18.260Z,10.45
2023-05-05T00:10:45.588Z,10.44
2023-05-05T00:13:12.640Z,10.39
2023-05-05T00:15:41.943Z,10.35
2023-05-05T00:18:09.018Z,10.31
2023-05-05T00:20:36.542Z,10.24
2023-05-05T00:25:15.176Z,10.14
2023-05-05T00:27:42.221Z,10.07
2023-05-05T00:30:10.766Z,10.04
2023-05-05T00:32:37.904Z,10.04
2023-05-05T00:35:06.441Z,10.04
2023-05-05T00:37:33.383Z,10.05
2023-05-05T00:40:00.325Z,10.05
2023-05-05T00:42:27.374Z,10.04
2023-05-05T00:44:54.522Z,10.05
2023-05-05T00:47:21.576Z,10.03
2023-05-05T00:49:48.616Z,10.01
2023-05-05T00:52:15.780Z,9.98
2023-05-05T00:54:42.712Z,9.96
2023-05-05T00:57:09.655Z,9.97
2023-05-05T00:59:36.720Z,9.98
2023-05-05T01:02:03.783Z,9.98
2023-05-05T01:04:30.906Z,9.98
2023-05-05T01:07:30.606Z,10.00
2023-05-05T01:10:19.745Z,10.04
2023-05-05T01:12:47.751Z,10.09
2023-05-05T01:15:17.963Z,10.12
2023-05-05T01:17:56.183Z,10.17
2023-05-05T01:20:46.170Z,10.23
2023-05-05T01:23:19.272Z,10.28
2023-05-05T01:26:25.919Z,10.31
2023-05-05T01:29:30.855Z,10.36
2023-05-05T01:32:00.441Z,10.40
2023-05-05T01:34:33.345Z,10.41
2023-05-05T01:37:08.483Z,10.44
2023-05-05T01:39:35.629Z,10.44
2023-05-05T01:42:05.515Z,10.46
2023-05-05T01:44:33.717Z,10.48
2023-05-05T01:47:01.078Z,10.51
2023-05-05T01:49:28.211Z,10.53
2023-05-05T01:51:56.288Z,10.55
2023-05-05T01:54:24.461Z,10.58
2023-05-05T01:56:51.403Z,10.59
2023-05-05T01:59:18.457Z,10.62
2023-05-05T02:01:47.339Z,10.65
2023-05-05T02:04:14.641Z,10.65
2023-05-05T02:06:41.640Z,10.63
2023-05-05T02:09:09.915Z,10.63
2023-05-05T02:11:36.967Z,10.62
2023-05-05T02:14:04.050Z,10.61
2023-05-05T02:16:31.366Z,10.58
2023-05-05T02:18:59.639Z,10.57
2023-05-05T02:21:26.691Z,10.56
2023-05-05T02:23:53.738Z,10.55
2023-05-05T02:26:22.118Z,10.53
2023-05-05T02:28:53.152Z,10.53
2023-05-05T02:31:21.553Z,10.54
2023-05-05T02:33:48.690Z,10.55
2023-05-05T02:36:23.921Z,10.56
2023-05-05T02:39:01.346Z,10.58
2023-05-05T02:41:29.996Z,10.58
2023-05-05T02:43:57.655Z,10.59
2023-05-05T02:46:28.192Z,10.59
2023-05-05T02:48:55.453Z,10.63
2023-05-05T02:51:22.579Z,10.67
2023-05-05T02:53:49.633Z,10.70
2023-05-05T02:56:23.129Z,10.73
2023-05-05T02:59:25.194Z,10.77
2023-05-05T03:02:00.944Z,10.85
2023-05-05T03:04:37.825Z,10.93
2023-05-05T03:07:09.751Z,11.00
2023-05-05T03:10:00.212Z,11.04
2023-05-05T03:12:28.471Z,11.11
2023-05-05T03:15:10.971Z,11.16
2023-05-05T03:17:38.395Z,11.21
2023-05-05T03:20:06.624Z,11.25
2023-05-05T03:22:39.168Z,11.28
2023-05-05T03:25:08.587Z,11.31
2023-05-05T03:27:35.824Z,11.36
2023-05-05T03:30:03.801Z,11.40
2023-05-05T03:32:31.642Z,11.45
2023-05-05T03:34:58.703Z,11.52
2023-05-05T03:37:29.644Z,11.61
2023-05-05T03:39:57.417Z,11.68
2023-05-05T03:42:24.448Z,11.74
2023-05-05T03:44:53.679Z,11.85
2023-05-05T03:47:21.104Z,11.94
2023-05-05T03:49:48.151Z,12.04
2023-05-05T03:52:15.180Z,12.13
2023-05-05T03:54:43.348Z,12.23
2023-05-05T03:57:10.299Z,12.35
2023-05-05T03:59:37.194Z,12.56
2023-05-05T04:02:04.552Z,12.84
2023-05-05T04:04:31.668Z,13.20
2023-05-05T04:10:00.571Z,14.07
2023-05-05T04:12:27.721Z,14.41
2023-05-05T04:14:55.207Z,14.70
2023-05-05T04:17:22.533Z,14.95
2023-05-05T04:19:49.998Z,15.11
2023-05-05T04:22:17.432Z,15.15
2023-05-05T04:24:44.697Z,15.14
2023-05-05T04:27:11.852Z,15.16
2023-05-05T04:29:39.818Z,15.18
2023-05-05T04:32:07.372Z,15.21
2023-05-05T04:34:34.419Z,15.18
2023-05-05T04:37:01.574Z,15.11
2023-05-05T04:39:31.584Z,15.09
2023-05-05T04:41:58.937Z,15.24
2023-05-05T04:44:25.980Z,15.48
2023-05-05T04:46:53.170Z,15.81
2023-05-05T04:49:20.694Z,16.13
2023-05-05T04:51:47.942Z,16.34
2023-05-05T04:54:15.094Z,16.49
2023-05-05T04:56:42.961Z,16.49
2023-05-05T04:59:09.921Z,16.47
2023-05-05T05:01:38.585Z,16.48
2023-05-05T05:04:05.775Z,16.47
2023-05-05T05:06:32.986Z,16.46
2023-05-05T05:09:00.755Z,16.44
2023-05-05T05:11:27.920Z,16.34
2023-05-05T05:13:54.946Z,16.30
2023-05-05T05:16:22.138Z,16.18
2023-05-05T05:18:49.145Z,16.23
2023-05-05T05:21:16.508Z,16.33
2023-05-05T05:23:44.060Z,16.51
2023-05-05T05:26:11.209Z,16.55
2023-05-05T05:28:38.563Z,16.55
2023-05-05T05:31:05.717Z,16.56
2023-05-05T05:33:32.859Z,16.72
2023-05-05T05:35:59.814Z,16.88
2023-05-05T05:38:27.266Z,16.88
2023-05-05T05:40:56.459Z,16.81
2023-05-05T05:43:23.498Z,16.84
2023-05-05T05:45:50.673Z,16.92
2023-05-05T05:48:18.214Z,16.99
2023-05-05T05:50:45.264Z,17.10
2023-05-05T05:53:12.298Z,17.13
2023-05-05T05:55:41.251Z,17.21
2023-05-05T05:58:08.709Z,17.38
2023-05-05T06:00:37.048Z,17.59
2023-05-05T06:03:05.313Z,17.71
2023-05-05T06:05:34.596Z,17.75
2023-05-05T06:08:01.562Z,17.77
2023-05-05T06:10:29.035Z,17.79
2023-05-05T06:13:03.214Z,17.76
2023-05-05T06:15:30.892Z,17.76
2023-05-05T06:17:58.972Z,17.75
2023-05-05T06:20:26.628Z,17.77
2023-05-05T06:22:53.761Z,17.84
2023-05-05T06:25:21.618Z,17.92
2023-05-05T06:27:49.381Z,18.02
2023-05-05T06:30:16.640Z,18.09
2023-05-05T06:32:43.819Z,18.15
2023-05-05T06:35:10.953Z,18.25
2023-05-05T06:37:38.190Z,18.33
2023-05-05T06:40:06.977Z,18.28
2023-05-05T06:42:34.350Z,18.27
2023-05-05T06:45:04.665Z,18.23
2023-05-05T06:47:31.606Z,18.21
2023-05-05T06:49:58.643Z,18.31
2023-05-05T06:52:26.108Z,18.44
2023-05-05T06:54:53.148Z,18.62
2023-05-05T06:57:20.219Z,18.80
2023-05-05T06:59:47.253Z,18.88
2023-05-05T07:02:14.189Z,18.94
2023-05-05T07:04:41.642Z,19.05
2023-05-05T07:07:08.590Z,19.21
2023-05-05T07:09:35.639Z,19.26
2023-05-05T07:12:03.806Z,19.36
2023-05-05T07:14:30.894Z,19.49
2023-05-05T07:16:58.165Z,19.64
2023-05-05T07:19:25.352Z,19.69
2023-05-05T07:21:52.294Z,19.61
2023-05-05T07:24:19.237Z,19.60
2023-05-05T07:26:46.224Z,19.74
2023-05-05T07:29:13.677Z,19.98
2023-05-05T07:31:40.652Z,20.07
2023-05-05T07:34:07.654Z,20.12
2023-05-05T07:36:34.555Z,20.09
2023-05-05T07:39:01.516Z,20.01
2023-05-05T07:41:28.589Z,20.02
2023-05-05T07:43:55.545Z,20.11
2023-05-05T07:46:22.473Z,20.04
2023-05-05T07:48:49.359Z,19.96
2023-05-05T07:51:16.249Z,19.99
2023-05-05T07:53:43.217Z,20.06
2023-05-05T07:56:10.170Z,20.06
2023-05-05T07:58:37.124Z,20.14
2023-05-05T08:01:06.552Z,20.27
2023-05-05T08:03:33.836Z,20.36
2023-05-05T08:09:22.713Z,20.77
2023-05-05T08:11:49.866Z,20.86
2023-05-05T08:14:17.331Z,21.00
2023-05-05T08:16:44.263Z,21.04
2023-05-05T08:19:21.511Z,20.90
2023-05-05T08:21:56.388Z,20.89
2023-05-05T08:24:23.432Z,21.03
2023-05-05T08:26:50.471Z,21.20
2023-05-05T08:29:18.234Z,21.45
2023-05-05T08:31:45.249Z,21.70
2023-05-05T08:34:12.633Z,21.90
2023-05-05T09:09:07.047Z,23.61
2023-05-05T09:11:34.288Z,23.61
2023-05-05T09:14:02.063Z,23.73
2023-05-05T09:16:29.149Z,23.87
2023-05-05T09:19:03.939Z,23.88
2023-05-05T09:21:31.378Z,23.83
2023-05-05T09:24:11.466Z,23.68
2023-05-05T09:26:46.253Z,23.41
2023-05-05T09:29:22.824Z,23.22
2023-05-05T09:32:08.840Z,22.96
2023-05-05T09:34:38.242Z,22.83
2023-05-05T09:37:06.286Z,22.95
2023-05-05T09:39:33.406Z,23.11
2023-05-05T09:42:00.689Z,23.18
2023-05-05T09:44:38.382Z,23.18
2023-05-05T09:47:07.321Z,23.03
2023-05-05T09:49:41.999Z,22.97
2023-05-05T09:52:15.909Z,22.78
2023-05-05T09:54:43.569Z,22.84
2023-05-05T09:57:25.934Z,22.90
2023-05-05T10:00:00.928Z,22.97
2023-05-05T10:02:36.045Z,22.98
2023-05-05T10:05:07.242Z,22.99
2023-05-05T10:07:35.475Z,23.08
2023-05-05T10:10:37.728Z,23.11
2023-05-05T10:13:05.406Z,23.02
2023-05-05T10:15:32.539Z,23.04
2023-05-05T10:18:07.819Z,23.04
2023-05-05T10:20:36.582Z,22.96
2023-05-05T10:23:05.776Z,23.05
2023-05-05T10:25:40.090Z,23.18
2023-05-05T10:28:06.920Z,23.35
2023-05-05T10:30:36.734Z,23.63
2023-05-05T10:35:41.181Z,23.89
2023-05-05T10:38:12.009Z,23.91
2023-05-05T10:40:45.088Z,23.84
2023-05-05T10:43:15.014Z,23.85
2023-05-05T10:45:42.501Z,23.92
2023-05-05T10:48:18.258Z,23.82
2023-05-05T10:50:49.481Z,23.74
2023-05-05T10:53:28.912Z,23.55
2023-05-05T10:56:32.524Z,23.32
2023-05-05T10:59:00.844Z,23.05
2023-05-05T11:01:32.613Z,22.79
2023-05-05T11:04:22.333Z,22.42
2023-05-05T11:07:20.825Z,22.34
2023-05-05T11:09:55.171Z,22.44
2023-05-05T11:12:22.260Z,22.51
2023-05-05T11:15:27.588Z,22.56
2023-05-05T11:17:56.002Z,22.40
2023-05-05T11:20:42.998Z,22.36
2023-05-05T11:23:13.438Z,22.58
2023-05-05T11:25:43.749Z,22.61
2023-05-05T11:28:14.180Z,22.42
2023-05-05T11:30:57.531Z,22.31
2023-05-05T11:33:38.901Z,22.39
2023-05-05T11:36:07.671Z,22.49
2023-05-05T11:38:46.707Z,22.70
2023-05-05T11:41:20.726Z,22.91
2023-05-05T11:43:48.064Z,22.91
2023-05-05T11:46:16.333Z,22.77
2023-05-05T11:48:53.111Z,22.76
2023-05-05T11:51:21.583Z,22.84
2023-05-05T11:53:49.050Z,22.90
2023-05-05T11:56:21.328Z,23.02
2023-05-05T11:58:48.775Z,22.94
2023-05-05T12:01:15.636Z,22.84
2023-05-05T12:03:44.859Z,22.94
2023-05-05T12:06:12.268Z,23.11
2023-05-05T12:08:40.293Z,23.38
2023-05-05T12:11:08.332Z,23.54
2023-05-05T12:13:35.667Z,23.56
2023-05-05T12:16:12.791Z,23.44
2023-05-05T12:18:40.405Z,23.34
2023-05-05T12:21:19.734Z,23.39
2023-05-05T12:23:46.588Z,23.39
2023-05-05T12:26:30.430Z,23.33
2023-05-05T12:28:58.189Z,23.38
2023-05-05T12:31:51.950Z,23.43
2023-05-05T12:34:20.851Z,23.45
2023-05-05T12:36:47.894Z,23.48
2023-05-05T12:39:16.079Z,23.56
2023-05-05T12:43:33.017Z,23.59
2023-05-05T12:46:01.988Z,23.58
2023-05-05T12:48:29.441Z,23.55
2023-05-05T12:51:20.155Z,23.61
2023-05-05T12:53:48.219Z,23.80
2023-05-05T12:56:35.473Z,24.02
2023-05-05T12:59:04.558Z,24.26
2023-05-05T13:01:31.889Z,24.43
2023-05-05T13:04:13.085Z,24.32
2023-05-05T13:06:44.613Z,23.96
2023-05-05T13:09:28.195Z,23.53
2023-05-05T13:11:55.200Z,22.96
2023-05-05T13:14:23.091Z,22.49
2023-05-05T13:16:50.523Z,22.21
2023-05-05T13:19:17.764Z,22.15
2023-05-05T13:21:44.714Z,22.23
2023-05-05T13:24:21.366Z,22.33
2023-05-05T13:26:53.767Z,22.62
2023-05-05T13:29:20.813Z,22.72
2023-05-05T13:31:48.027Z,22.65
2023-05-05T13:34:15.204Z,22.47
2023-05-05T13:36:42.249Z,22.55
2023-05-05T13:39:09.302Z,22.72
2023-05-05T13:41:36.355Z,22.88
2023-05-05T13:44:03.388Z,23.04
2023-05-05T13:46:30.898Z,23.15
2023-05-05T13:48:57.894Z,23.40
2023-05-05T13:51:24.935Z,23.82
2023-05-05T13:53:52.625Z,24.06
2023-05-05T13:56:19.638Z,24.24
2023-05-05T13:58:46.692Z,24.40
2023-05-05T14:01:13.684Z,24.12
2023-05-05T14:03:41.000Z,23.72
2023-05-05T14:06:09.299Z,23.43
2023-05-05T14:08:36.622Z,23.16
2023-05-05T14:11:03.973Z,23.01
2023-05-05T14:13:31.197Z,22.85
2023-05-05T14:15:58.675Z,22.84
2023-05-05T14:18:26.264Z,22.87
2023-05-05T14:20:53.487Z,23.02
2023-05-05T14:23:20.631Z,23.14
2023-05-05T14:25:47.886Z,23.24
2023-05-05T14:28:15.246Z,23.66
2023-05-05T14:30:42.288Z,24.07
2023-05-05T14:33:09.333Z,24.09
2023-05-05T14:35:36.281Z,24.00
2023-05-05T14:38:03.425Z,23.76
2023-05-05T14:40:31.392Z,23.57
2023-05-05T14:42:58.440Z,23.40
2023-05-05T14:45:26.512Z,23.40
2023-05-05T14:47:53.470Z,23.58
2023-05-05T14:50:20.910Z,23.64
2023-05-05T14:52:47.856Z,23.44
2023-05-05T14:55:14.804Z,23.29
2023-05-05T14:57:41.854Z,23.53
2023-05-05T15:00:11.123Z,23.62
2023-05-05T15:02:38.189Z,23.73
2023-05-05T15:05:05.996Z,23.88
2023-05-05T15:07:33.320Z,23.80
2023-05-05T15:10:00.462Z,23.78
2023-05-05T15:12:28.129Z,23.90
2023-05-05T15:14:55.784Z,23.90
2023-05-05T15:17:22.997Z,23.83
2023-05-05T15:19:49.977Z,23.77
2023-05-05T15:22:17.023Z,23.92
2023-05-05T15:24:43.969Z,23.80
2023-05-05T15:27:11.420Z,23.40
2023-05-05T15:29:38.782Z,22.84
2023-05-05T15:32:06.088Z,22.31
2023-05-05T15:34:33.175Z,21.82
2023-05-05T15:37:00.287Z,21.36
2023-05-05T15:39:27.382Z,20.90
2023-05-05T15:41:54.309Z,20.51
2023-05-05T15:44:21.363Z,20.15
2023-05-05T15:46:50.347Z,19.86
2023-05-05T15:49:17.723Z,19.61
2023-05-05T15:51:44.646Z,19.37
2023-05-05T15:54:11.597Z,19.20
2023-05-05T15:56:38.637Z,19.05
2023-05-05T15:59:05.701Z,18.94
2023-05-05T16:01:33.813Z,18.84
2023-05-05T16:04:01.417Z,18.72
2023-05-05T16:06:28.782Z,18.60
2023-05-05T16:08:58.643Z,18.48
2023-05-05T16:11:26.653Z,18.39
2023-05-05T16:13:53.824Z,18.30
2023-05-05T16:16:21.177Z,18.21
2023-05-05T16:18:48.306Z,18.11
2023-05-05T16:21:15.367Z,17.99
2023-05-05T16:23:42.413Z,17.89
